sensor_id;sensor_type;location;lat;lon;timestamp;pressure;altitude;pressure_sealevel;temperature;humidity
75172;BME280;63750;52.418;20.742;2022-11-15T00:01:01;101099.77;;;8.04;70.66
75172;BME280;63750;52.418;20.742;2022-11-15T00:03:29;101100.10;;;8.07;70.57
75172;BME280;63750;52.418;20.742;2022-11-15T00:06:03;101098.28;;;8.07;70.46
75172;BME280;63750;52.418;20.742;2022-11-15T00:08:33;101093.13;;;8.05;70.34
75172;BME280;63750;52.418;20.742;2022-11-15T00:11:02;101091.45;;;8.04;70.65
75172;BME280;63750;52.418;20.742;2022-11-15T00:13:31;101084.23;;;8.04;70.78
75172;BME280;63750;52.418;20.742;2022-11-15T00:16:00;101081.02;;;8.00;70.83
75172;BME280;63750;52.418;20.742;2022-11-15T00:18:30;101075.56;;;7.99;70.71
75172;BME280;63750;52.418;20.742;2022-11-15T00:21:05;101071.12;;;8.00;70.81
75172;BME280;63750;52.418;20.742;2022-11-15T00:23:34;101068.64;;;8.00;71.05
75172;BME280;63750;52.418;20.742;2022-11-15T00:26:02;101064.70;;;7.98;70.92
75172;BME280;63750;52.418;20.742;2022-11-15T00:28:31;101061.12;;;7.94;70.86
75172;BME280;63750;52.418;20.742;2022-11-15T00:31:03;101059.49;;;7.89;71.10
75172;BME280;63750;52.418;20.742;2022-11-15T00:33:32;101060.52;;;7.92;70.88
75172;BME280;63750;52.418;20.742;2022-11-15T00:36:05;101055.00;;;7.93;70.90
75172;BME280;63750;52.418;20.742;2022-11-15T00:38:35;101050.84;;;7.97;70.86
75172;BME280;63750;52.418;20.742;2022-11-15T00:41:07;101048.55;;;8.00;71.09
75172;BME280;63750;52.418;20.742;2022-11-15T00:43:35;101044.77;;;8.06;71.11
75172;BME280;63750;52.418;20.742;2022-11-15T00:46:04;101039.89;;;8.07;71.00
75172;BME280;63750;52.418;20.742;2022-11-15T00:48:33;101035.77;;;8.08;71.15
75172;BME280;63750;52.418;20.742;2022-11-15T00:51:01;101030.52;;;8.13;71.13
75172;BME280;63750;52.418;20.742;2022-11-15T00:53:29;101028.61;;;8.18;70.70
75172;BME280;63750;52.418;20.742;2022-11-15T00:55:58;101026.21;;;8.19;70.59
75172;BME280;63750;52.418;20.742;2022-11-15T00:58:26;101019.05;;;8.18;71.10
75172;BME280;63750;52.418;20.742;2022-11-15T01:00:54;101017.30;;;8.07;70.57
75172;BME280;63750;52.418;20.742;2022-11-15T01:03:23;101016.79;;;8.07;70.58
75172;BME280;63750;52.418;20.742;2022-11-15T01:05:51;101010.34;;;8.05;70.79
75172;BME280;63750;52.418;20.742;2022-11-15T01:08:20;101003.47;;;8.08;70.74
75172;BME280;63750;52.418;20.742;2022-11-15T01:10:48;101000.62;;;8.11;70.85
75172;BME280;63750;52.418;20.742;2022-11-15T01:13:17;101009.23;;;8.12;70.66
75172;BME280;63750;52.418;20.742;2022-11-15T01:15:45;101007.23;;;8.10;70.97
75172;BME280;63750;52.418;20.742;2022-11-15T01:18:13;101008.10;;;8.10;70.91
75172;BME280;63750;52.418;20.742;2022-11-15T01:20:43;101007.14;;;8.09;70.69
75172;BME280;63750;52.418;20.742;2022-11-15T01:23:11;101004.48;;;8.04;70.77
75172;BME280;63750;52.418;20.742;2022-11-15T01:25:39;101003.83;;;8.03;71.21
75172;BME280;63750;52.418;20.742;2022-11-15T01:28:08;100999.34;;;8.07;71.01
75172;BME280;63750;52.418;20.742;2022-11-15T01:30:36;100999.77;;;8.06;71.05
75172;BME280;63750;52.418;20.742;2022-11-15T01:33:05;100990.16;;;8.01;70.92
75172;BME280;63750;52.418;20.742;2022-11-15T01:35:33;100987.31;;;8.02;71.13
75172;BME280;63750;52.418;20.742;2022-11-15T01:38:06;100989.39;;;8.05;71.27
75172;BME280;63750;52.418;20.742;2022-11-15T01:40:35;100986.09;;;8.09;71.11
75172;BME280;63750;52.418;20.742;2022-11-15T01:43:23;100984.16;;;8.09;71.22
75172;BME280;63750;52.418;20.742;2022-11-15T01:45:55;100982.09;;;8.03;71.03
75172;BME280;63750;52.418;20.742;2022-11-15T01:48:34;100979.02;;;7.97;71.48
75172;BME280;63750;52.418;20.742;2022-11-15T01:51:06;100970.92;;;7.87;71.57
75172;BME280;63750;52.418;20.742;2022-11-15T01:53:39;100968.17;;;7.83;71.22
75172;BME280;63750;52.418;20.742;2022-11-15T01:56:11;100958.96;;;7.86;71.60
75172;BME280;63750;52.418;20.742;2022-11-15T01:58:42;100949.48;;;7.86;71.60
75172;BME280;63750;52.418;20.742;2022-11-15T02:01:13;100949.80;;;7.84;71.44
75172;BME280;63750;52.418;20.742;2022-11-15T02:03:46;100944.09;;;7.85;71.54
75172;BME280;63750;52.418;20.742;2022-11-15T02:06:17;100942.17;;;7.87;71.78
75172;BME280;63750;52.418;20.742;2022-11-15T02:08:46;100937.52;;;7.85;71.73
75172;BME280;63750;52.418;20.742;2022-11-15T02:11:15;100942.04;;;7.84;71.71
75172;BME280;63750;52.418;20.742;2022-11-15T02:13:44;100939.83;;;7.85;71.77
75172;BME280;63750;52.418;20.742;2022-11-15T02:16:18;100933.50;;;7.82;71.97
75172;BME280;63750;52.418;20.742;2022-11-15T02:18:55;100931.38;;;7.85;71.88
75172;BME280;63750;52.418;20.742;2022-11-15T02:21:30;100927.20;;;7.89;72.08
75172;BME280;63750;52.418;20.742;2022-11-15T02:24:44;100919.14;;;7.93;71.83
75172;BME280;63750;52.418;20.742;2022-11-15T02:30:25;100919.56;;;7.94;72.01
75172;BME280;63750;52.418;20.742;2022-11-15T02:33:00;100916.66;;;7.86;72.30
75172;BME280;63750;52.418;20.742;2022-11-15T02:35:39;100913.92;;;7.82;72.54
75172;BME280;63750;52.418;20.742;2022-11-15T02:38:20;100910.41;;;7.84;72.06
75172;BME280;63750;52.418;20.742;2022-11-15T02:40:59;100905.59;;;7.87;72.26
75172;BME280;63750;52.418;20.742;2022-11-15T02:43:32;100902.41;;;7.93;71.87
75172;BME280;63750;52.418;20.742;2022-11-15T02:46:08;100907.92;;;7.95;71.92
75172;BME280;63750;52.418;20.742;2022-11-15T02:48:39;100902.69;;;7.91;71.96
75172;BME280;63750;52.418;20.742;2022-11-15T02:51:09;100894.15;;;7.90;72.13
75172;BME280;63750;52.418;20.742;2022-11-15T02:53:38;100892.94;;;7.89;71.99
75172;BME280;63750;52.418;20.742;2022-11-15T02:56:09;100891.52;;;7.87;72.11
75172;BME280;63750;52.418;20.742;2022-11-15T02:58:52;100892.14;;;7.86;72.06
75172;BME280;63750;52.418;20.742;2022-11-15T03:01:36;100882.36;;;7.82;72.29
75172;BME280;63750;52.418;20.742;2022-11-15T03:04:11;100881.45;;;7.79;72.35
75172;BME280;63750;52.418;20.742;2022-11-15T03:06:49;100875.26;;;7.77;72.37
75172;BME280;63750;52.418;20.742;2022-11-15T03:09:27;100884.48;;;7.76;72.28
75172;BME280;63750;52.418;20.742;2022-11-15T03:12:03;100879.71;;;7.74;72.64
75172;BME280;63750;52.418;20.742;2022-11-15T03:14:36;100873.42;;;7.71;72.70
75172;BME280;63750;52.418;20.742;2022-11-15T03:17:15;100871.55;;;7.70;72.55
75172;BME280;63750;52.418;20.742;2022-11-15T03:19:46;100868.17;;;7.73;72.79
75172;BME280;63750;52.418;20.742;2022-11-15T03:22:17;100865.81;;;7.76;72.61
75172;BME280;63750;52.418;20.742;2022-11-15T03:24:50;100862.29;;;7.74;72.82
75172;BME280;63750;52.418;20.742;2022-11-15T03:27:23;100855.48;;;7.67;73.08
75172;BME280;63750;52.418;20.742;2022-11-15T03:29:56;100844.68;;;7.63;73.03
75172;BME280;63750;52.418;20.742;2022-11-15T03:32:28;100844.33;;;7.63;72.99
75172;BME280;63750;52.418;20.742;2022-11-15T03:35:00;100843.36;;;7.62;73.11
75172;BME280;63750;52.418;20.742;2022-11-15T03:37:35;100837.26;;;7.63;72.89
75172;BME280;63750;52.418;20.742;2022-11-15T03:40:06;100837.98;;;7.65;73.03
75172;BME280;63750;52.418;20.742;2022-11-15T03:42:38;100838.79;;;7.64;73.49
75172;BME280;63750;52.418;20.742;2022-11-15T03:45:15;100836.20;;;7.61;73.23
75172;BME280;63750;52.418;20.742;2022-11-15T03:47:48;100836.81;;;7.60;73.21
75172;BME280;63750;52.418;20.742;2022-11-15T03:50:20;100837.77;;;7.64;73.40
75172;BME280;63750;52.418;20.742;2022-11-15T03:52:50;100835.15;;;7.66;73.09
75172;BME280;63750;52.418;20.742;2022-11-15T03:55:20;100833.89;;;7.71;73.12
75172;BME280;63750;52.418;20.742;2022-11-15T03:57:51;100827.70;;;7.74;73.27
75172;BME280;63750;52.418;20.742;2022-11-15T04:00:21;100831.11;;;7.68;73.28
75172;BME280;63750;52.418;20.742;2022-11-15T04:02:49;100825.48;;;7.65;73.11
75172;BME280;63750;52.418;20.742;2022-11-15T04:05:18;100823.55;;;7.65;72.81
75172;BME280;63750;52.418;20.742;2022-11-15T04:07:47;100819.42;;;7.64;73.14
75172;BME280;63750;52.418;20.742;2022-11-15T04:10:16;100810.91;;;7.59;73.25
75172;BME280;63750;52.418;20.742;2022-11-15T04:12:47;100812.81;;;7.57;72.99
75172;BME280;63750;52.418;20.742;2022-11-15T04:15:17;100811.66;;;7.61;73.45
75172;BME280;63750;52.418;20.742;2022-11-15T04:17:47;100816.59;;;7.66;73.35
75172;BME280;63750;52.418;20.742;2022-11-15T04:20:18;100815.27;;;7.67;73.22
75172;BME280;63750;52.418;20.742;2022-11-15T04:22:46;100813.50;;;7.68;73.41
75172;BME280;63750;52.418;20.742;2022-11-15T04:25:15;100812.98;;;7.65;73.24
75172;BME280;63750;52.418;20.742;2022-11-15T04:27:43;100812.20;;;7.61;73.07
75172;BME280;63750;52.418;20.742;2022-11-15T04:30:12;100811.67;;;7.59;73.16
75172;BME280;63750;52.418;20.742;2022-11-15T04:32:41;100805.48;;;7.56;73.32
75172;BME280;63750;52.418;20.742;2022-11-15T04:35:10;100802.52;;;7.54;73.33
75172;BME280;63750;52.418;20.742;2022-11-15T04:37:38;100799.04;;;7.53;73.36
75172;BME280;63750;52.418;20.742;2022-11-15T04:40:08;100799.30;;;7.54;73.47
75172;BME280;63750;52.418;20.742;2022-11-15T04:42:37;100796.19;;;7.58;73.31
75172;BME280;63750;52.418;20.742;2022-11-15T04:45:09;100792.38;;;7.62;73.51
75172;BME280;63750;52.418;20.742;2022-11-15T04:47:38;100795.09;;;7.64;73.51
75172;BME280;63750;52.418;20.742;2022-11-15T04:50:07;100791.89;;;7.62;73.36
75172;BME280;63750;52.418;20.742;2022-11-15T04:52:36;100792.27;;;7.61;73.41
75172;BME280;63750;52.418;20.742;2022-11-15T04:55:05;100787.56;;;7.60;73.35
75172;BME280;63750;52.418;20.742;2022-11-15T04:57:33;100783.19;;;7.62;73.30
75172;BME280;63750;52.418;20.742;2022-11-15T05:00:04;100784.13;;;7.67;73.34
75172;BME280;63750;52.418;20.742;2022-11-15T05:02:33;100780.88;;;7.65;73.36
75172;BME280;63750;52.418;20.742;2022-11-15T05:05:01;100787.72;;;7.63;73.29
75172;BME280;63750;52.418;20.742;2022-11-15T05:07:29;100783.64;;;7.54;73.07
75172;BME280;63750;52.418;20.742;2022-11-15T05:09:58;100784.40;;;7.51;73.01
75172;BME280;63750;52.418;20.742;2022-11-15T05:12:26;100777.99;;;7.54;73.34
75172;BME280;63750;52.418;20.742;2022-11-15T05:14:54;100779.29;;;7.60;73.38
75172;BME280;63750;52.418;20.742;2022-11-15T05:17:23;100773.98;;;7.63;73.21
75172;BME280;63750;52.418;20.742;2022-11-15T05:19:51;100770.55;;;7.64;73.49
75172;BME280;63750;52.418;20.742;2022-11-15T05:22:20;100771.07;;;7.67;73.33
75172;BME280;63750;52.418;20.742;2022-11-15T05:24:49;100768.70;;;7.68;73.37
75172;BME280;63750;52.418;20.742;2022-11-15T05:27:17;100767.66;;;7.70;73.20
75172;BME280;63750;52.418;20.742;2022-11-15T05:29:45;100766.05;;;7.73;73.37
75172;BME280;63750;52.418;20.742;2022-11-15T05:32:14;100763.07;;;7.70;73.32
75172;BME280;63750;52.418;20.742;2022-11-15T05:34:43;100756.95;;;7.67;73.33
75172;BME280;63750;52.418;20.742;2022-11-15T05:37:12;100758.94;;;7.69;73.43
75172;BME280;63750;52.418;20.742;2022-11-15T05:39:40;100758.79;;;7.66;73.16
75172;BME280;63750;52.418;20.742;2022-11-15T05:42:11;100757.38;;;7.63;73.17
75172;BME280;63750;52.418;20.742;2022-11-15T05:44:43;100760.40;;;7.68;73.24
75172;BME280;63750;52.418;20.742;2022-11-15T05:47:16;100754.45;;;7.65;73.28
75172;BME280;63750;52.418;20.742;2022-11-15T05:49:46;100752.99;;;7.60;73.24
75172;BME280;63750;52.418;20.742;2022-11-15T05:52:18;100754.16;;;7.57;73.35
75172;BME280;63750;52.418;20.742;2022-11-15T05:54:48;100754.30;;;7.55;73.30
75172;BME280;63750;52.418;20.742;2022-11-15T05:57:18;100750.23;;;7.55;73.23
75172;BME280;63750;52.418;20.742;2022-11-15T05:59:46;100749.20;;;7.59;73.38
75172;BME280;63750;52.418;20.742;2022-11-15T06:02:15;100754.69;;;7.64;73.38
75172;BME280;63750;52.418;20.742;2022-11-15T06:04:43;100757.64;;;7.59;72.97
75172;BME280;63750;52.418;20.742;2022-11-15T06:07:12;100756.45;;;7.54;73.29
75172;BME280;63750;52.418;20.742;2022-11-15T06:09:40;100758.02;;;7.47;73.03
75172;BME280;63750;52.418;20.742;2022-11-15T06:12:08;100758.10;;;7.46;73.14
75172;BME280;63750;52.418;20.742;2022-11-15T06:14:37;100761.13;;;7.48;73.21
75172;BME280;63750;52.418;20.742;2022-11-15T06:17:05;100761.55;;;7.52;73.27
75172;BME280;63750;52.418;20.742;2022-11-15T06:19:33;100763.33;;;7.54;73.19
75172;BME280;63750;52.418;20.742;2022-11-15T06:22:02;100757.20;;;7.59;73.33
75172;BME280;63750;52.418;20.742;2022-11-15T06:24:30;100758.42;;;7.63;73.15
75172;BME280;63750;52.418;20.742;2022-11-15T06:26:59;100755.77;;;7.61;73.01
75172;BME280;63750;52.418;20.742;2022-11-15T06:29:27;100753.46;;;7.61;73.10
75172;BME280;63750;52.418;20.742;2022-11-15T06:31:56;100752.48;;;7.65;72.88
75172;BME280;63750;52.418;20.742;2022-11-15T06:34:24;100756.84;;;7.66;73.27
75172;BME280;63750;52.418;20.742;2022-11-15T06:36:52;100754.96;;;7.65;72.84
75172;BME280;63750;52.418;20.742;2022-11-15T06:39:21;100759.30;;;7.61;73.17
75172;BME280;63750;52.418;20.742;2022-11-15T06:41:49;100762.73;;;7.57;73.18
75172;BME280;63750;52.418;20.742;2022-11-15T06:44:17;100769.06;;;7.58;73.19
75172;BME280;63750;52.418;20.742;2022-11-15T06:46:46;100771.89;;;7.57;72.86
75172;BME280;63750;52.418;20.742;2022-11-15T06:49:14;100770.23;;;7.58;73.04
75172;BME280;63750;52.418;20.742;2022-11-15T06:51:43;100772.58;;;7.56;73.01
75172;BME280;63750;52.418;20.742;2022-11-15T06:54:11;100769.80;;;7.50;73.28
75172;BME280;63750;52.418;20.742;2022-11-15T06:56:40;100772.29;;;7.49;73.45
75172;BME280;63750;52.418;20.742;2022-11-15T06:59:08;100778.14;;;7.49;73.33
75172;BME280;63750;52.418;20.742;2022-11-15T07:01:36;100777.09;;;7.44;73.68
75172;BME280;63750;52.418;20.742;2022-11-15T07:04:05;100780.23;;;7.47;73.53
75172;BME280;63750;52.418;20.742;2022-11-15T07:06:33;100777.77;;;7.47;73.48
75172;BME280;63750;52.418;20.742;2022-11-15T07:09:03;100781.04;;;7.51;73.29
75172;BME280;63750;52.418;20.742;2022-11-15T07:11:31;100782.20;;;7.54;73.54
75172;BME280;63750;52.418;20.742;2022-11-15T07:14:00;100779.02;;;7.57;73.65
75172;BME280;63750;52.418;20.742;2022-11-15T07:16:29;100777.92;;;7.59;73.63
75172;BME280;63750;52.418;20.742;2022-11-15T07:18:58;100775.58;;;7.60;73.59
75172;BME280;63750;52.418;20.742;2022-11-15T07:21:26;100773.46;;;7.63;73.61
75172;BME280;63750;52.418;20.742;2022-11-15T07:23:55;100775.27;;;7.67;73.70
75172;BME280;63750;52.418;20.742;2022-11-15T07:26:23;100775.13;;;7.71;73.61
75172;BME280;63750;52.418;20.742;2022-11-15T07:28:51;100777.92;;;7.74;73.18
75172;BME280;63750;52.418;20.742;2022-11-15T07:31:20;100772.80;;;7.82;73.18
75172;BME280;63750;52.418;20.742;2022-11-15T07:33:48;100771.08;;;7.86;73.22
75172;BME280;63750;52.418;20.742;2022-11-15T07:36:16;100770.34;;;7.87;72.95
75172;BME280;63750;52.418;20.742;2022-11-15T07:38:45;100768.93;;;7.89;72.98
75172;BME280;63750;52.418;20.742;2022-11-15T07:41:13;100767.86;;;7.85;73.22
75172;BME280;63750;52.418;20.742;2022-11-15T07:43:42;100764.17;;;7.87;72.89
75172;BME280;63750;52.418;20.742;2022-11-15T07:46:11;100757.55;;;7.83;72.92
75172;BME280;63750;52.418;20.742;2022-11-15T07:48:47;100758.29;;;7.85;73.08
75172;BME280;63750;52.418;20.742;2022-11-15T07:51:17;100756.29;;;7.84;73.00
75172;BME280;63750;52.418;20.742;2022-11-15T07:53:46;100758.77;;;7.83;72.86
75172;BME280;63750;52.418;20.742;2022-11-15T07:56:14;100750.87;;;7.83;72.65
75172;BME280;63750;52.418;20.742;2022-11-15T07:58:43;100750.92;;;7.79;73.05
75172;BME280;63750;52.418;20.742;2022-11-15T08:01:13;100749.13;;;7.80;72.94
75172;BME280;63750;52.418;20.742;2022-11-15T08:03:41;100749.16;;;7.80;72.78
75172;BME280;63750;52.418;20.742;2022-11-15T08:06:10;100745.55;;;7.69;72.91
75172;BME280;63750;52.418;20.742;2022-11-15T08:08:39;100741.78;;;7.62;72.92
75172;BME280;63750;52.418;20.742;2022-11-15T08:11:08;100739.55;;;7.56;72.99
75172;BME280;63750;52.418;20.742;2022-11-15T08:13:37;100735.98;;;7.57;73.15
75172;BME280;63750;52.418;20.742;2022-11-15T08:16:07;100733.40;;;7.63;73.34
75172;BME280;63750;52.418;20.742;2022-11-15T08:18:37;100727.98;;;7.65;73.46
75172;BME280;63750;52.418;20.742;2022-11-15T08:21:06;100723.11;;;7.69;73.40
75172;BME280;63750;52.418;20.742;2022-11-15T08:23:34;100717.80;;;7.74;73.44
75172;BME280;63750;52.418;20.742;2022-11-15T08:26:04;100713.71;;;7.82;73.15
75172;BME280;63750;52.418;20.742;2022-11-15T08:28:33;100715.45;;;7.87;73.11
75172;BME280;63750;52.418;20.742;2022-11-15T08:31:02;100720.74;;;7.89;73.06
75172;BME280;63750;52.418;20.742;2022-11-15T08:33:30;100718.84;;;7.91;73.08
75172;BME280;63750;52.418;20.742;2022-11-15T08:36:00;100715.76;;;7.88;73.01
75172;BME280;63750;52.418;20.742;2022-11-15T08:38:29;100712.38;;;7.90;72.92
75172;BME280;63750;52.418;20.742;2022-11-15T08:41:03;100713.42;;;7.95;73.03
75172;BME280;63750;52.418;20.742;2022-11-15T08:43:32;100711.59;;;7.99;72.98
75172;BME280;63750;52.418;20.742;2022-11-15T08:46:01;100708.36;;;7.99;73.10
75172;BME280;63750;52.418;20.742;2022-11-15T08:48:29;100714.18;;;7.99;72.93
75172;BME280;63750;52.418;20.742;2022-11-15T08:50:58;100711.82;;;8.02;72.75
75172;BME280;63750;52.418;20.742;2022-11-15T08:53:26;100713.98;;;8.00;73.07
75172;BME280;63750;52.418;20.742;2022-11-15T08:55:55;100711.59;;;7.96;72.79
75172;BME280;63750;52.418;20.742;2022-11-15T08:58:23;100710.69;;;7.92;72.94
75172;BME280;63750;52.418;20.742;2022-11-15T09:00:52;100708.04;;;7.89;72.91
75172;BME280;63750;52.418;20.742;2022-11-15T09:03:20;100701.25;;;7.84;73.03
75172;BME280;63750;52.418;20.742;2022-11-15T09:05:48;100701.07;;;7.84;73.14
75172;BME280;63750;52.418;20.742;2022-11-15T09:08:17;100697.69;;;7.86;73.11
75172;BME280;63750;52.418;20.742;2022-11-15T09:10:45;100700.54;;;7.86;73.17
75172;BME280;63750;52.418;20.742;2022-11-15T09:13:14;100698.15;;;7.92;73.70
75172;BME280;63750;52.418;20.742;2022-11-15T09:15:42;100694.73;;;8.04;73.73
75172;BME280;63750;52.418;20.742;2022-11-15T09:18:11;100693.73;;;8.11;73.11
75172;BME280;63750;52.418;20.742;2022-11-15T09:20:39;100693.56;;;8.13;73.08
75172;BME280;63750;52.418;20.742;2022-11-15T09:23:08;100695.02;;;8.13;72.43
75172;BME280;63750;52.418;20.742;2022-11-15T09:25:36;100691.95;;;8.11;72.29
75172;BME280;63750;52.418;20.742;2022-11-15T09:28:08;100687.75;;;8.06;72.35
75172;BME280;63750;52.418;20.742;2022-11-15T09:30:37;100690.92;;;8.06;72.63
75172;BME280;63750;52.418;20.742;2022-11-15T09:33:09;100685.06;;;8.09;72.43
75172;BME280;63750;52.418;20.742;2022-11-15T09:35:38;100677.79;;;8.12;72.29
75172;BME280;63750;52.418;20.742;2022-11-15T09:38:07;100676.95;;;8.13;72.47
75172;BME280;63750;52.418;20.742;2022-11-15T09:40:38;100668.46;;;8.11;72.61
75172;BME280;63750;52.418;20.742;2022-11-15T09:43:26;100665.71;;;8.15;72.73
75172;BME280;63750;52.418;20.742;2022-11-15T09:46:06;100667.42;;;8.19;72.83
75172;BME280;63750;52.418;20.742;2022-11-15T09:48:50;100663.35;;;8.19;72.72
75172;BME280;63750;52.418;20.742;2022-11-15T09:51:26;100665.67;;;8.25;72.91
75172;BME280;63750;52.418;20.742;2022-11-15T09:54:03;100660.55;;;8.30;72.93
75172;BME280;63750;52.418;20.742;2022-11-15T09:56:35;100653.22;;;8.31;72.89
75172;BME280;63750;52.418;20.742;2022-11-15T09:59:15;100649.97;;;8.35;72.48
75172;BME280;63750;52.418;20.742;2022-11-15T10:01:53;100644.36;;;8.32;72.36
75172;BME280;63750;52.418;20.742;2022-11-15T10:04:25;100644.68;;;8.32;72.43
75172;BME280;63750;52.418;20.742;2022-11-15T10:06:58;100644.64;;;8.35;72.03
75172;BME280;63750;52.418;20.742;2022-11-15T10:09:33;100640.36;;;8.36;72.16
75172;BME280;63750;52.418;20.742;2022-11-15T10:12:06;100632.04;;;8.36;72.10
75172;BME280;63750;52.418;20.742;2022-11-15T10:14:36;100629.59;;;8.38;72.21
75172;BME280;63750;52.418;20.742;2022-11-15T10:17:24;100631.00;;;8.43;71.93
75172;BME280;63750;52.418;20.742;2022-11-15T10:20:05;100636.73;;;8.39;71.65
75172;BME280;63750;52.418;20.742;2022-11-15T10:22:39;100639.36;;;8.35;72.01
75172;BME280;63750;52.418;20.742;2022-11-15T10:25:23;100636.73;;;8.35;71.69
75172;BME280;63750;52.418;20.742;2022-11-15T10:28:01;100630.08;;;8.41;71.79
75172;BME280;63750;52.418;20.742;2022-11-15T10:30:35;100634.41;;;8.44;71.86
75172;BME280;63750;52.418;20.742;2022-11-15T10:33:23;100632.92;;;8.47;71.95
75172;BME280;63750;52.418;20.742;2022-11-15T10:36:16;100635.30;;;8.53;72.01
75172;BME280;63750;52.418;20.742;2022-11-15T10:38:59;100630.58;;;8.62;72.12
75172;BME280;63750;52.418;20.742;2022-11-15T10:41:41;100630.84;;;8.70;72.07
75172;BME280;63750;52.418;20.742;2022-11-15T10:44:24;100631.52;;;8.73;72.14
75172;BME280;63750;52.418;20.742;2022-11-15T10:47:20;100629.98;;;8.78;72.03
75172;BME280;63750;52.418;20.742;2022-11-15T10:50:00;100628.39;;;8.88;71.86
75172;BME280;63750;52.418;20.742;2022-11-15T10:52:30;100624.05;;;8.91;71.68
75172;BME280;63750;52.418;20.742;2022-11-15T10:55:04;100621.27;;;8.93;71.72
75172;BME280;63750;52.418;20.742;2022-11-15T10:57:37;100615.73;;;9.00;71.94
75172;BME280;63750;52.418;20.742;2022-11-15T11:00:28;100610.70;;;9.10;71.73
75172;BME280;63750;52.418;20.742;2022-11-15T11:03:00;100610.39;;;9.20;71.27
75172;BME280;63750;52.418;20.742;2022-11-15T11:05:32;100606.96;;;9.26;71.15
75172;BME280;63750;52.418;20.742;2022-11-15T11:08:04;100610.84;;;9.30;70.82
75172;BME280;63750;52.418;20.742;2022-11-15T11:10:34;100609.86;;;9.32;70.56
75172;BME280;63750;52.418;20.742;2022-11-15T11:13:21;100606.70;;;9.31;70.58
75172;BME280;63750;52.418;20.742;2022-11-15T11:15:59;100604.64;;;9.26;70.37
75172;BME280;63750;52.418;20.742;2022-11-15T11:18:36;100602.29;;;9.27;70.20
75172;BME280;63750;52.418;20.742;2022-11-15T11:21:12;100603.13;;;9.30;70.27
75172;BME280;63750;52.418;20.742;2022-11-15T11:23:48;100597.58;;;9.26;70.49
75172;BME280;63750;52.418;20.742;2022-11-15T11:26:34;100596.09;;;9.25;70.01
75172;BME280;63750;52.418;20.742;2022-11-15T11:29:14;100594.23;;;9.21;70.01
75172;BME280;63750;52.418;20.742;2022-11-15T11:31:52;100592.59;;;9.22;70.18
75172;BME280;63750;52.418;20.742;2022-11-15T11:34:35;100588.30;;;9.25;70.09
75172;BME280;63750;52.418;20.742;2022-11-15T11:37:12;100588.35;;;9.27;70.15
75172;BME280;63750;52.418;20.742;2022-11-15T11:39:50;100581.58;;;9.29;70.61
75172;BME280;63750;52.418;20.742;2022-11-15T11:42:32;100581.98;;;9.31;70.23
75172;BME280;63750;52.418;20.742;2022-11-15T11:45:18;100575.84;;;9.31;69.82
75172;BME280;63750;52.418;20.742;2022-11-15T11:47:54;100575.95;;;9.33;70.29
75172;BME280;63750;52.418;20.742;2022-11-15T11:50:27;100571.88;;;9.38;70.13
75172;BME280;63750;52.418;20.742;2022-11-15T11:52:59;100570.16;;;9.35;69.60
75172;BME280;63750;52.418;20.742;2022-11-15T11:55:34;100565.94;;;9.33;69.83
75172;BME280;63750;52.418;20.742;2022-11-15T11:58:12;100559.83;;;9.32;69.68
75172;BME280;63750;52.418;20.742;2022-11-15T12:00:44;100555.73;;;9.32;69.60
75172;BME280;63750;52.418;20.742;2022-11-15T12:03:23;100554.08;;;9.31;69.52
75172;BME280;63750;52.418;20.742;2022-11-15T12:05:56;100553.98;;;9.28;69.32
75172;BME280;63750;52.418;20.742;2022-11-15T12:08:32;100553.04;;;9.29;69.59
75172;BME280;63750;52.418;20.742;2022-11-15T12:11:12;100549.97;;;9.31;69.67
75172;BME280;63750;52.418;20.742;2022-11-15T12:13:44;100545.48;;;9.34;69.91
75172;BME280;63750;52.418;20.742;2022-11-15T12:16:18;100539.23;;;9.39;69.88
75172;BME280;63750;52.418;20.742;2022-11-15T12:18:51;100541.17;;;9.46;70.00
75172;BME280;63750;52.418;20.742;2022-11-15T12:21:27;100539.95;;;9.48;70.11
75172;BME280;63750;52.418;20.742;2022-11-15T12:24:04;100541.08;;;9.47;69.76
75172;BME280;63750;52.418;20.742;2022-11-15T12:26:37;100531.58;;;9.44;69.52
75172;BME280;63750;52.418;20.742;2022-11-15T12:29:15;100529.15;;;9.41;69.34
75172;BME280;63750;52.418;20.742;2022-11-15T12:31:47;100525.75;;;9.37;69.32
75172;BME280;63750;52.418;20.742;2022-11-15T12:34:37;100521.61;;;9.36;69.20
75172;BME280;63750;52.418;20.742;2022-11-15T12:37:44;100525.60;;;9.35;69.48
75172;BME280;63750;52.418;20.742;2022-11-15T12:40:23;100526.39;;;9.34;69.61
75172;BME280;63750;52.418;20.742;2022-11-15T12:46:04;100520.48;;;9.43;69.86
75172;BME280;63750;52.418;20.742;2022-11-15T12:48:58;100518.45;;;9.49;69.82
75172;BME280;63750;52.418;20.742;2022-11-15T12:54:57;100512.82;;;9.54;69.62
75172;BME280;63750;52.418;20.742;2022-11-15T12:57:42;100517.70;;;9.58;69.38
75172;BME280;63750;52.418;20.742;2022-11-15T13:03:29;100506.05;;;9.55;69.18
75172;BME280;63750;52.418;20.742;2022-11-15T13:06:07;100507.89;;;9.54;69.18
75172;BME280;63750;52.418;20.742;2022-11-15T13:08:43;100503.38;;;9.55;69.37
75172;BME280;63750;52.418;20.742;2022-11-15T13:11:52;100498.81;;;9.57;69.56
75172;BME280;63750;52.418;20.742;2022-11-15T13:14:49;100495.33;;;9.59;69.39
75172;BME280;63750;52.418;20.742;2022-11-15T13:17:35;100494.88;;;9.60;69.30
75172;BME280;63750;52.418;20.742;2022-11-15T13:20:25;100491.77;;;9.63;69.28
75172;BME280;63750;52.418;20.742;2022-11-15T13:23:01;100488.80;;;9.67;69.47
75172;BME280;63750;52.418;20.742;2022-11-15T13:26:13;100488.92;;;9.72;69.37
75172;BME280;63750;52.418;20.742;2022-11-15T13:28:46;100494.59;;;9.74;69.35
75172;BME280;63750;52.418;20.742;2022-11-15T13:31:29;100490.92;;;9.75;69.54